createdAt,value
2018-07-10T00:01:57.872Z,63.48
2018-07-10T00:04:34.658Z,62.42
2018-07-10T00:09:18.057Z,61.99
2018-07-10T00:11:45.240Z,62.07
2018-07-10T00:14:12.368Z,63.64
2018-07-10T00:16:39.533Z,64.41
2018-07-10T00:19:06.707Z,63.43
2018-07-10T00:21:33.877Z,63.17
2018-07-10T00:24:01.030Z,62.87
2018-07-10T00:26:28.220Z,62.19
2018-07-10T00:28:55.374Z,61.57
2018-07-10T00:31:22.798Z,61.87
2018-07-10T00:33:49.959Z,64.09
2018-07-10T00:36:17.200Z,64.42
2018-07-10T00:38:55.880Z,63.51
2018-07-10T00:41:26.070Z,62.08
2018-07-10T00:43:53.303Z,62.15
2018-07-10T00:46:21.011Z,63.59
2018-07-10T00:48:48.256Z,65.41
2018-07-10T00:51:15.393Z,65.10
2018-07-10T00:53:42.799Z,65.73
2018-07-10T00:56:10.045Z,66.98
2018-07-10T00:58:37.294Z,67.11
2018-07-10T01:01:04.545Z,67.00
2018-07-10T01:03:31.708Z,64.00
2018-07-10T01:05:58.850Z,64.33
2018-07-10T01:08:26.036Z,64.80
2018-07-10T01:10:58.660Z,65.69
2018-07-10T01:13:25.896Z,64.41
2018-07-10T01:15:53.091Z,64.58
2018-07-10T01:18:23.723Z,64.39
2018-07-10T01:20:50.951Z,64.53
2018-07-10T01:23:19.136Z,63.98
2018-07-10T01:25:46.358Z,63.72
2018-07-10T01:28:13.556Z,64.61
2018-07-10T01:30:40.727Z,64.75
2018-07-10T01:33:07.918Z,64.08
2018-07-10T01:35:35.141Z,64.40
2018-07-10T01:38:02.313Z,63.41
2018-07-10T01:40:29.467Z,65.86
2018-07-10T01:42:56.677Z,64.95
2018-07-10T01:45:23.854Z,64.75
2018-07-10T01:47:51.039Z,65.26
2018-07-10T01:50:18.249Z,64.45
2018-07-10T01:52:45.435Z,66.45
2018-07-10T01:55:12.579Z,67.82
2018-07-10T01:57:40.159Z,68.76
2018-07-10T02:00:07.589Z,68.56
2018-07-10T02:02:34.764Z,67.38
2018-07-10T02:05:02.185Z,69.63
2018-07-10T02:07:29.363Z,69.86
2018-07-10T02:09:56.492Z,67.93
2018-07-10T02:12:23.680Z,67.33
2018-07-10T02:14:50.803Z,66.47
2018-07-10T02:17:18.000Z,66.56
2018-07-10T02:19:45.155Z,67.14
2018-07-10T02:22:12.387Z,66.42
2018-07-10T02:24:40.212Z,66.34
2018-07-10T02:27:07.385Z,67.16
2018-07-10T02:29:34.558Z,67.94
2018-07-10T02:32:01.748Z,68.03
2018-07-10T02:34:29.276Z,67.75
2018-07-10T02:36:56.420Z,67.05
2018-07-10T02:39:23.626Z,67.04
2018-07-10T02:41:50.745Z,69.41
2018-07-10T02:44:17.909Z,71.05
2018-07-10T02:46:45.169Z,70.66
2018-07-10T02:49:18.410Z,70.56
2018-07-10T02:52:08.908Z,69.93
2018-07-10T02:54:37.658Z,69.87
2018-07-10T02:57:06.679Z,72.25
2018-07-10T02:59:36.576Z,72.74
2018-07-10T03:02:04.680Z,71.24
2018-07-10T03:04:32.726Z,70.61
2018-07-10T03:06:59.880Z,69.67
2018-07-10T03:09:27.072Z,68.74
2018-07-10T03:11:54.243Z,68.78
2018-07-10T03:14:22.177Z,68.30
2018-07-10T03:16:49.356Z,67.93
2018-07-10T03:19:16.584Z,69.41
2018-07-10T03:21:43.776Z,68.16
2018-07-10T03:24:10.940Z,68.58
2018-07-10T03:26:38.116Z,67.08
2018-07-10T03:29:05.563Z,67.24
2018-07-10T03:31:32.760Z,68.56
2018-07-10T03:34:00.585Z,68.31
2018-07-10T03:36:28.865Z,68.05
2018-07-10T03:38:55.941Z,67.68
2018-07-10T03:41:23.077Z,68.77
2018-07-10T03:43:50.747Z,69.49
2018-07-10T03:46:17.900Z,70.00
2018-07-10T03:48:45.088Z,70.65
2018-07-10T03:51:12.540Z,71.58
2018-07-10T03:53:39.696Z,70.74
2018-07-10T03:56:06.939Z,72.29
2018-07-10T03:58:34.205Z,73.35
2018-07-10T04:01:01.416Z,74.01
2018-07-10T04:03:30.612Z,72.66
2018-07-10T04:05:58.845Z,72.52
2018-07-10T04:08:26.101Z,72.29
2018-07-10T04:10:53.269Z,72.81
2018-07-10T04:13:21.087Z,73.74
2018-07-10T04:15:50.437Z,72.82
2018-07-10T04:18:21.123Z,71.68
2018-07-10T04:20:57.089Z,72.35
2018-07-10T04:23:25.856Z,72.68
2018-07-10T04:25:54.180Z,72.94
2018-07-10T04:28:33.211Z,73.91
2018-07-10T04:31:15.179Z,74.81
2018-07-10T04:33:44.240Z,74.44
2018-07-10T04:36:11.396Z,74.54
2018-07-10T04:38:38.592Z,75.32
2018-07-10T04:41:08.881Z,73.54
2018-07-10T04:43:39.392Z,73.50
2018-07-10T04:46:06.553Z,72.79
2018-07-10T04:48:37.404Z,72.29
2018-07-10T04:51:31.000Z,71.56
2018-07-10T04:54:05.921Z,71.45
2018-07-10T04:56:33.104Z,71.85
2018-07-10T04:59:00.296Z,73.16
2018-07-10T05:01:31.758Z,72.96
2018-07-10T05:03:59.931Z,72.99
2018-07-10T05:06:27.185Z,72.99
2018-07-10T05:08:54.371Z,71.12
2018-07-10T05:11:21.516Z,72.50
2018-07-10T05:13:48.656Z,73.97
2018-07-10T05:16:15.853Z,72.26
2018-07-10T05:18:43.032Z,72.35
2018-07-10T05:21:13.444Z,71.43
2018-07-10T05:23:40.613Z,72.88
2018-07-10T05:26:09.029Z,72.56
2018-07-10T05:28:36.193Z,72.94
2018-07-10T05:31:03.396Z,71.95
2018-07-10T05:33:30.656Z,71.93
2018-07-10T05:36:04.671Z,73.12
2018-07-10T05:38:38.980Z,72.05
2018-07-10T05:41:06.844Z,73.12
2018-07-10T05:43:39.212Z,72.86
2018-07-10T05:46:06.614Z,71.09
2018-07-10T05:48:33.776Z,72.83
2018-07-10T05:51:00.960Z,72.40
2018-07-10T05:53:28.138Z,71.56
2018-07-10T05:55:55.311Z,72.53
2018-07-10T05:58:22.548Z,71.21
2018-07-10T06:00:49.751Z,70.38
2018-07-10T06:03:17.040Z,69.04
2018-07-10T06:05:44.244Z,69.81
2018-07-10T06:08:12.752Z,69.00
2018-07-10T06:10:39.971Z,69.37
2018-07-10T06:13:07.131Z,68.98
2018-07-10T06:15:34.320Z,68.71
2018-07-10T06:18:01.481Z,69.16
2018-07-10T06:20:28.695Z,68.36
2018-07-10T06:22:57.112Z,68.11
2018-07-10T06:25:24.592Z,67.02
2018-07-10T06:28:00.340Z,67.64
2018-07-10T06:30:27.556Z,68.05
2018-07-10T06:33:00.892Z,65.92
2018-07-10T06:35:38.244Z,64.67
2018-07-10T06:38:14.935Z,62.80
2018-07-10T06:40:45.652Z,63.35
2018-07-10T06:43:49.829Z,63.44
2018-07-10T06:46:19.615Z,62.97
2018-07-10T06:48:49.535Z,62.27
2018-07-10T06:51:18.296Z,64.15
2018-07-10T06:53:47.863Z,62.96
2018-07-10T06:56:23.396Z,63.49
2018-07-10T06:58:50.556Z,63.36
2018-07-10T07:01:17.764Z,65.10
2018-07-10T07:03:44.994Z,64.73
2018-07-10T07:06:12.423Z,64.25
2018-07-10T07:08:39.592Z,63.15
2018-07-10T07:11:06.766Z,63.28
2018-07-10T07:13:33.951Z,64.25
2018-07-10T07:16:01.067Z,63.76
2018-07-10T07:18:28.223Z,64.52
2018-07-10T07:20:55.357Z,64.33
2018-07-10T07:23:22.525Z,62.98
2018-07-10T07:25:49.707Z,61.72
2018-07-10T07:28:16.836Z,60.80
2018-07-10T07:30:43.954Z,61.67
2018-07-10T07:33:11.077Z,62.08
2018-07-10T07:35:38.320Z,63.47
2018-07-10T07:38:05.703Z,63.30
2018-07-10T07:40:32.943Z,63.28
2018-07-10T07:43:00.152Z,64.62
2018-07-10T07:45:27.273Z,64.12
2018-07-10T07:47:54.443Z,63.68
2018-07-10T07:50:21.614Z,62.68
2018-07-10T07:52:48.808Z,62.79
2018-07-10T07:55:16.000Z,63.84
2018-07-10T07:57:43.140Z,63.72
2018-07-10T08:00:10.276Z,64.92
2018-07-10T08:02:37.463Z,65.04
2018-07-10T08:05:04.940Z,65.87
2018-07-10T08:07:32.132Z,66.16
2018-07-10T08:09:59.752Z,67.53
2018-07-10T08:12:28.914Z,70.22
2018-07-10T08:14:56.565Z,72.55
2018-07-10T08:17:24.693Z,74.22
2018-07-10T08:19:53.329Z,74.49
2018-07-10T08:22:20.490Z,74.04
2018-07-10T08:24:47.716Z,75.05
2018-07-10T08:27:14.927Z,74.91
2018-07-10T08:29:42.137Z,74.00
2018-07-10T08:32:09.315Z,73.87
2018-07-10T08:34:36.517Z,73.40
2018-07-10T08:37:03.751Z,72.06
2018-07-10T08:39:30.901Z,72.34
2018-07-10T08:41:58.112Z,70.96
2018-07-10T08:44:25.325Z,72.95
2018-07-10T08:46:55.225Z,74.46
2018-07-10T08:49:23.945Z,75.39
2018-07-10T08:51:52.076Z,76.89
2018-07-10T08:54:21.188Z,77.72
2018-07-10T08:56:48.425Z,78.22
2018-07-10T08:59:15.716Z,75.55
2018-07-10T09:01:42.964Z,76.80
2018-07-10T09:04:10.116Z,78.80
2018-07-10T09:06:37.315Z,79.14
2018-07-10T09:09:05.062Z,78.28
2018-07-10T09:11:32.317Z,78.97
2018-07-10T09:14:00.372Z,81.27
2018-07-10T09:16:27.557Z,77.38
2018-07-10T09:18:54.760Z,76.92
2018-07-10T09:21:22.511Z,80.40
2018-07-10T09:23:49.683Z,75.25
2018-07-10T09:26:16.880Z,76.70
2018-07-10T09:28:44.064Z,76.16
2018-07-10T09:31:11.292Z,75.75
2018-07-10T09:33:38.515Z,79.28
2018-07-10T09:36:05.676Z,79.41
2018-07-10T09:38:33.792Z,77.46
2018-07-10T09:41:01.674Z,78.03
2018-07-10T09:43:28.825Z,77.38
2018-07-10T09:45:56.986Z,77.24
2018-07-10T09:48:24.221Z,80.16
2018-07-10T09:50:51.422Z,84.60
2018-07-10T09:53:18.604Z,86.72
2018-07-10T09:55:45.778Z,84.83
2018-07-10T09:58:12.938Z,83.96
2018-07-10T10:00:46.029Z,84.87
2018-07-10T10:03:13.210Z,87.55
2018-07-10T10:05:42.528Z,91.59
2018-07-10T10:08:10.153Z,92.42
2018-07-10T10:10:37.744Z,93.47
2018-07-10T10:13:04.988Z,93.22
2018-07-10T10:15:33.384Z,93.41
2018-07-10T10:18:01.540Z,92.48
2018-07-10T10:23:03.207Z,94.36
2018-07-10T10:25:32.165Z,94.29
2018-07-10T10:27:59.837Z,94.00
2018-07-10T10:30:27.087Z,92.51
2018-07-10T10:32:54.771Z,91.90
2018-07-10T10:35:21.941Z,91.57
2018-07-10T10:37:49.146Z,92.12
2018-07-10T10:40:16.347Z,88.70
2018-07-10T10:42:43.592Z,89.16
2018-07-10T10:45:11.100Z,87.41
2018-07-10T10:47:38.258Z,85.66
2018-07-10T10:50:06.145Z,84.58
2018-07-10T10:52:33.304Z,83.91
2018-07-10T10:55:00.520Z,85.19
2018-07-10T10:57:32.204Z,86.31
2018-07-10T10:59:59.420Z,84.99
2018-07-10T11:02:26.690Z,87.79
2018-07-10T11:04:53.822Z,87.72
2018-07-10T11:07:21.367Z,83.62
2018-07-10T11:09:48.821Z,81.98
2018-07-10T11:12:16.095Z,81.26
2018-07-10T11:14:44.464Z,82.25
2018-07-10T11:17:18.845Z,81.32
2018-07-10T11:19:51.951Z,81.37
2018-07-10T11:22:20.980Z,80.25
2018-07-10T11:25:19.297Z,80.81
2018-07-10T11:27:55.524Z,79.97
2018-07-10T11:30:22.737Z,81.29
2018-07-10T11:32:50.023Z,81.60
2018-07-10T11:35:17.211Z,82.43
2018-07-10T11:37:44.401Z,80.01
2018-07-10T11:40:12.738Z,79.07
2018-07-10T11:42:40.938Z,78.89
2018-07-10T11:45:15.058Z,80.58
2018-07-10T11:47:42.475Z,82.26
2018-07-10T11:50:09.688Z,81.35
2018-07-10T11:52:37.570Z,80.35
2018-07-10T11:55:05.058Z,78.86
2018-07-10T11:57:32.222Z,82.00
2018-07-10T11:59:59.460Z,82.60
2018-07-10T12:02:35.714Z,78.00
2018-07-10T12:05:04.270Z,78.32
2018-07-10T12:07:31.442Z,80.71
2018-07-10T12:10:10.132Z,77.51
2018-07-10T12:12:37.352Z,77.22
2018-07-10T12:15:05.719Z,75.70
2018-07-10T12:17:33.569Z,76.60
2018-07-10T12:20:00.903Z,77.54
2018-07-10T12:22:28.067Z,78.20
2018-07-10T12:24:55.292Z,80.23
2018-07-10T12:27:22.515Z,76.45
2018-07-10T12:29:49.720Z,77.26
2018-07-10T12:32:16.928Z,78.36
2018-07-10T12:34:44.064Z,77.78
2018-07-10T12:37:11.259Z,79.51
2018-07-10T12:39:38.436Z,81.65
2018-07-10T12:42:05.781Z,80.92
2018-07-10T12:44:32.967Z,81.66
2018-07-10T12:47:00.173Z,79.29
2018-07-10T12:49:27.455Z,80.46
2018-07-10T12:51:54.588Z,81.80
2018-07-10T12:54:21.776Z,83.97
2018-07-10T12:56:49.456Z,82.24
2018-07-10T12:59:16.680Z,83.28
2018-07-10T13:01:44.044Z,83.27
2018-07-10T13:04:11.252Z,81.11
2018-07-10T13:06:38.516Z,81.96
2018-07-10T13:09:05.733Z,82.42
2018-07-10T13:11:32.948Z,81.21
2018-07-10T13:14:00.129Z,79.82
2018-07-10T13:16:27.378Z,81.13
2018-07-10T13:18:54.576Z,82.26
2018-07-10T13:21:21.856Z,84.55
2018-07-10T13:23:49.068Z,83.47
2018-07-10T13:26:16.300Z,84.93
2018-07-10T13:28:43.530Z,82.79
2018-07-10T13:31:10.808Z,83.03
2018-07-10T13:33:38.028Z,82.44
2018-07-10T13:36:05.270Z,81.93
2018-07-10T13:38:32.512Z,81.51
2018-07-10T13:41:01.266Z,83.61
2018-07-10T13:43:28.446Z,78.50
2018-07-10T13:45:55.632Z,78.89
2018-07-10T13:48:22.883Z,79.40
2018-07-10T13:50:50.325Z,79.38
2018-07-10T13:53:17.695Z,78.13
2018-07-10T13:55:44.860Z,78.43
2018-07-10T13:58:16.747Z,78.34
2018-07-10T14:00:45.961Z,77.54
2018-07-10T14:03:13.138Z,78.31
2018-07-10T14:05:40.632Z,78.91
2018-07-10T14:08:07.814Z,76.57
2018-07-10T14:10:35.025Z,76.95
2018-07-10T14:13:02.529Z,76.75
2018-07-10T14:15:29.800Z,77.87
2018-07-10T14:17:57.653Z,80.86
2018-07-10T14:20:25.108Z,82.60
2018-07-10T14:22:52.333Z,83.42
2018-07-10T14:25:19.548Z,82.97
2018-07-10T14:27:46.752Z,79.53
2018-07-10T14:30:13.997Z,76.59
2018-07-10T14:32:41.211Z,81.03
2018-07-10T14:35:08.464Z,82.89
2018-07-10T14:37:36.072Z,81.85
2018-07-10T14:40:03.728Z,80.14
2018-07-10T14:42:31.029Z,76.71
2018-07-10T14:45:02.622Z,71.20
2018-07-10T14:47:29.868Z,68.72
2018-07-10T14:49:57.245Z,67.68
2018-07-10T14:52:24.484Z,69.85
2018-07-10T14:54:51.656Z,67.07
2018-07-10T14:57:18.873Z,67.83
2018-07-10T14:59:46.115Z,70.16
2018-07-10T15:02:13.336Z,70.69
2018-07-10T15:04:40.580Z,70.70
2018-07-10T15:07:07.800Z,71.07
2018-07-10T15:09:34.948Z,69.96
2018-07-10T15:12:03.216Z,68.50
2018-07-10T15:14:30.405Z,66.66
2018-07-10T15:17:03.307Z,63.86
2018-07-10T15:21:57.161Z,62.68
2018-07-10T15:24:24.310Z,64.93
2018-07-10T15:26:51.524Z,65.15
2018-07-10T15:29:24.409Z,61.39
2018-07-10T15:31:51.589Z,63.88
2018-07-10T15:34:18.863Z,62.19
2018-07-10T15:36:46.082Z,63.98
2018-07-10T15:39:13.328Z,63.23
2018-07-10T15:41:40.566Z,61.21
2018-07-10T15:44:07.820Z,62.28
2018-07-10T15:46:35.008Z,64.55
2018-07-10T15:49:02.186Z,64.88
2018-07-10T15:51:29.358Z,61.93
2018-07-10T15:53:56.548Z,59.84
2018-07-10T15:56:23.810Z,55.33
2018-07-10T15:58:51.001Z,55.17
2018-07-10T16:01:18.241Z,52.59
2018-07-10T16:03:45.491Z,54.83
2018-07-10T16:06:12.802Z,51.96
2018-07-10T16:08:39.982Z,51.13
2018-07-10T16:11:07.225Z,51.49
2018-07-10T16:13:37.517Z,51.48
2018-07-10T16:16:05.814Z,52.39
2018-07-10T16:18:33.249Z,54.16
2018-07-10T16:21:01.737Z,54.50
2018-07-10T16:23:29.871Z,53.93
2018-07-10T16:26:03.889Z,54.50
2018-07-10T16:28:31.146Z,54.06
2018-07-10T16:30:58.413Z,54.83
2018-07-10T16:33:31.023Z,53.45
2018-07-10T16:35:58.212Z,51.63
2018-07-10T16:38:25.461Z,52.80
2018-07-10T16:40:57.245Z,53.03
2018-07-10T16:43:29.026Z,52.77
2018-07-10T16:45:57.373Z,52.51
2018-07-10T16:48:33.335Z,53.31
2018-07-10T16:51:07.485Z,52.52
2018-07-10T16:53:36.041Z,53.35
2018-07-10T16:56:03.396Z,52.15
2018-07-10T16:58:32.792Z,53.81
2018-07-10T17:01:00.381Z,54.50
2018-07-10T17:03:28.068Z,54.36
2018-07-10T17:05:55.295Z,55.35
2018-07-10T17:08:22.536Z,55.14
2018-07-10T17:10:49.701Z,55.12
2018-07-10T17:13:17.973Z,56.09
2018-07-10T17:15:45.211Z,56.82
2018-07-10T17:18:13.841Z,55.47
2018-07-10T17:20:41.519Z,55.61
2018-07-10T17:23:08.782Z,56.88
2018-07-10T17:25:36.048Z,55.58
2018-07-10T17:28:03.313Z,55.06
2018-07-10T17:30:30.453Z,55.13
2018-07-10T17:32:57.794Z,55.15
2018-07-10T17:35:25.069Z,55.65
2018-07-10T17:37:52.368Z,55.88
2018-07-10T17:40:19.574Z,57.03
2018-07-10T17:42:47.117Z,56.79
2018-07-10T17:45:18.184Z,56.34
2018-07-10T17:47:45.661Z,57.20
2018-07-10T17:50:12.928Z,57.14
2018-07-10T17:52:40.182Z,57.31
2018-07-10T17:55:07.384Z,57.71
2018-07-10T17:57:35.021Z,57.92
2018-07-10T18:00:03.677Z,57.42
2018-07-10T18:02:31.080Z,58.91
2018-07-10T18:05:09.207Z,59.91
2018-07-10T18:07:36.442Z,59.30
2018-07-10T18:10:04.772Z,59.77
2018-07-10T18:12:31.968Z,60.85
2018-07-10T18:14:59.193Z,60.17
2018-07-10T18:17:26.385Z,63.48
2018-07-10T18:19:53.628Z,60.53
2018-07-10T18:22:20.830Z,60.47
2018-07-10T18:24:48.089Z,61.20
2018-07-10T18:27:15.558Z,61.81
2018-07-10T18:29:42.736Z,62.54
2018-07-10T18:32:10.116Z,63.04
2018-07-10T18:34:37.669Z,65.56
2018-07-10T18:37:04.953Z,65.72
2018-07-10T18:39:32.265Z,67.27
2018-07-10T18:41:59.483Z,68.28
2018-07-10T18:44:26.629Z,66.75
2018-07-10T18:46:53.777Z,67.15
2018-07-10T18:49:21.164Z,67.60
2018-07-10T18:51:48.906Z,66.61
2018-07-10T18:54:21.337Z,67.64
2018-07-10T18:56:48.547Z,68.28
2018-07-10T18:59:18.471Z,68.13
2018-07-10T19:02:22.854Z,66.81
2018-07-10T19:04:55.530Z,69.68
2018-07-10T19:07:22.740Z,71.73
2018-07-10T19:09:49.987Z,72.72
2018-07-10T19:12:17.540Z,74.43
2018-07-10T19:14:45.175Z,74.98
2018-07-10T19:17:16.853Z,73.91
2018-07-10T19:19:46.024Z,75.48
2018-07-10T19:22:15.150Z,74.90
2018-07-10T19:24:42.439Z,76.45
2018-07-10T19:27:19.583Z,77.25
2018-07-10T19:29:49.149Z,77.30
2018-07-10T19:32:16.681Z,79.17
2018-07-10T19:34:44.762Z,78.94
2018-07-10T19:37:11.980Z,78.41
2018-07-10T19:39:39.179Z,79.09
2018-07-10T19:42:06.668Z,79.22
2018-07-10T19:44:33.873Z,79.02
2018-07-10T19:47:08.000Z,79.26
2018-07-10T19:49:35.948Z,78.64
2018-07-10T19:52:03.102Z,78.70
2018-07-10T19:54:30.663Z,78.29
2018-07-10T19:56:58.256Z,78.36
2018-07-10T19:59:25.497Z,81.15
2018-07-10T20:01:56.126Z,80.03
2018-07-10T20:04:41.209Z,80.65
2018-07-10T20:07:15.370Z,81.20
2018-07-10T20:09:46.740Z,82.85
2018-07-10T20:12:13.936Z,85.28
2018-07-10T20:14:53.071Z,82.82
2018-07-10T20:17:21.577Z,81.21
2018-07-10T20:19:55.052Z,81.28
2018-07-10T20:22:33.253Z,81.56
2018-07-10T20:25:12.536Z,80.69
2018-07-10T20:27:45.788Z,80.32
2018-07-10T20:30:24.348Z,81.05
2018-07-10T20:32:57.793Z,80.51
2018-07-10T20:35:27.680Z,80.28
2018-07-10T20:37:54.928Z,81.02
2018-07-10T20:40:29.573Z,80.05
2018-07-10T20:42:56.740Z,81.65
2018-07-10T20:45:24.619Z,82.66
2018-07-10T20:47:54.587Z,81.82
2018-07-10T20:50:30.148Z,80.97
2018-07-10T20:54:13.194Z,82.37
2018-07-10T20:56:58.256Z,81.96
2018-07-10T20:59:33.740Z,85.30
2018-07-10T21:02:01.947Z,85.31
2018-07-10T21:04:36.055Z,84.73
2018-07-10T21:07:09.560Z,83.61
2018-07-10T21:09:53.628Z,82.54
2018-07-10T21:12:29.238Z,82.24
2018-07-10T21:15:14.449Z,84.72
2018-07-10T21:20:03.626Z,84.77
2018-07-10T21:22:51.009Z,83.42
2018-07-10T21:25:24.759Z,82.66
2018-07-10T21:28:01.352Z,82.48
2018-07-10T21:30:35.556Z,81.37
2018-07-10T21:34:13.520Z,83.27
2018-07-10T21:40:03.388Z,85.29
2018-07-10T21:43:45.590Z,84.51
2018-07-10T21:46:20.216Z,84.14
2018-07-10T21:49:26.640Z,84.01
2018-07-10T21:51:53.904Z,86.71
2018-07-10T21:54:21.081Z,88.25
2018-07-10T21:56:48.241Z,87.16
2018-07-10T21:59:17.348Z,86.93
2018-07-10T22:01:50.805Z,86.78
2018-07-10T22:04:19.221Z,88.92
2018-07-10T22:06:47.346Z,87.07
2018-07-10T22:09:15.503Z,87.17
2018-07-10T22:11:44.584Z,85.22
2018-07-10T22:14:11.763Z,84.38
2018-07-10T22:16:39.647Z,83.28
2018-07-10T22:19:06.969Z,83.20
2018-07-10T22:21:34.183Z,83.88
2018-07-10T22:24:01.427Z,87.14
2018-07-10T22:26:28.904Z,87.59
2018-07-10T22:28:57.336Z,88.61
2018-07-10T22:31:31.348Z,87.63
2018-07-10T22:33:58.482Z,88.15
2018-07-10T22:36:25.693Z,88.20
2018-07-10T22:38:52.864Z,86.43
2018-07-10T22:41:20.758Z,86.31
2018-07-10T22:43:47.955Z,87.44
2018-07-10T22:46:15.172Z,88.29
2018-07-10T22:48:42.329Z,88.09
2018-07-10T22:51:09.485Z,86.88
2018-07-10T22:53:37.297Z,86.81
2018-07-10T22:56:04.481Z,86.41
2018-07-10T22:58:31.633Z,86.21
2018-07-10T23:00:58.893Z,86.13
2018-07-10T23:03:26.109Z,86.31
2018-07-10T23:05:54.104Z,86.44
2018-07-10T23:08:32.021Z,86.84
2018-07-10T23:11:00.832Z,85.68
2018-07-10T23:13:28.000Z,85.91
2018-07-10T23:15:55.253Z,87.00
2018-07-10T23:18:22.364Z,88.35
2018-07-10T23:20:49.489Z,88.54
2018-07-10T23:23:16.923Z,89.57
2018-07-10T23:25:44.448Z,89.66
2018-07-10T23:28:11.668Z,87.90
2018-07-10T23:30:40.163Z,86.07
2018-07-10T23:33:11.449Z,85.85
2018-07-10T23:35:40.293Z,85.72
2018-07-10T23:38:17.011Z,85.05
2018-07-10T23:40:44.209Z,85.74
2018-07-10T23:43:11.588Z,85.94
2018-07-10T23:45:38.779Z,85.58
2018-07-10T23:48:06.629Z,86.30
2018-07-10T23:50:35.326Z,87.94
2018-07-10T23:54:12.348Z,88.76
2018-07-10T23:56:39.615Z,87.08
2018-07-10T23:59:06.736Z,86.59
